Heartville, Illinois
Current Conditions -  °F | °C
As of 11:55 PM on Saturday 22 Nov 2014 (Local Time) from K1H2 Reporting Station
Overcast Overcast  
Wind Chill: 52°   Ceiling: 10000
Heat Index: 52°   Visibility: NA
Dew Point: 40°   Wind: 6mph
Humidity: 64%   Direction: 160°SSE
Pressure: 29.92"   Gusts: NA
Location:  39.1183°N, 88.6059°W
Report Text: K1H2 230555Z AUTO 16005KT SCT070 OVC100 11/05 A2992 RMK AO2 T01100045 10140 20095 401570025 PWINO
Loading
Personal Weather Stations






























Interactive Weather Map New forecast layout! Learn more

10-Day Weather Forecast

Advertisements
Track Severe Weather on mobile